Time;durP1;ratioP1;P1;durP2;ratioP2;P2;SDS_P1;SDS_P2;PMS_P1;PMS_P2;Temp;Humidity;BMP_temperature;BMP_pressure;BME280_temperature;BME280_humidity;BME280_pressure;Samples;Min_cycle;Max_cycle;Signal;HPM_P1;HPM_P2
2022/08/02 00:00:18;;;;;;;8.52;2.40;;;;;;;;;;5025021;28;20033;-66
2022/08/02 00:02:45;;;;;;;9.73;2.58;;;;;;;;;;5027634;28;20037;-66
2022/08/02 00:05:12;;;;;;;10.27;2.67;;;;;;;;;;5024380;28;20040;-66
2022/08/02 00:07:38;;;;;;;8.02;2.38;;;;;;;;;;5025858;28;20564;-66
2022/08/02 00:10:04;;;;;;;10.18;2.47;;;;;;;;;;5030879;28;20025;-66
2022/08/02 00:12:31;;;;;;;8.90;2.38;;;;;;;;;;5026816;28;20025;-66
2022/08/02 00:14:57;;;;;;;8.20;2.50;;;;;;;;;;5025904;28;20450;-66
2022/08/02 00:17:23;;;;;;;13.70;2.55;;;;;;;;;;5024419;28;20041;-66
2022/08/02 00:19:49;;;;;;;7.15;2.20;;;;;;;;;;5025500;28;20033;-66
2022/08/02 00:22:15;;;;;;;8.50;2.65;;;;;;;;;;5023241;28;20037;-65
2022/08/02 00:24:42;;;;;;;8.38;2.38;;;;;;;;;;5023675;28;20101;-66
2022/08/02 00:27:08;;;;;;;9.50;2.60;;;;;;;;;;5022442;28;20041;-66
2022/08/02 00:29:34;;;;;;;10.00;2.63;;;;;;;;;;5024643;28;20032;-66
2022/08/02 00:32:00;;;;;;;7.95;2.35;;;;;;;;;;5019268;28;20472;-67
2022/08/02 00:34:27;;;;;;;5.93;2.10;;;;;;;;;;5024332;28;20112;-64
2022/08/02 00:36:53;;;;;;;8.93;2.50;;;;;;;;;;5023653;28;20033;-65
2022/08/02 00:39:19;;;;;;;9.10;2.50;;;;;;;;;;5021719;28;21468;-65
2022/08/02 00:41:47;;;;;;;8.95;2.30;;;;;;;;;;5022969;28;20449;-65
2022/08/02 00:44:13;;;;;;;7.28;2.33;;;;;;;;;;5020909;28;20417;-65
2022/08/02 00:46:39;;;;;;;12.32;2.90;;;;;;;;;;5021868;28;20434;-66
2022/08/02 00:49:05;;;;;;;7.45;2.97;;;;;;;;;;5021295;28;20032;-65
2022/08/02 00:51:31;;;;;;;10.52;3.33;;;;;;;;;;5023941;28;20239;-66
2022/08/02 00:53:57;;;;;;;8.85;2.58;;;;;;;;;;5023897;28;20395;-65
2022/08/02 00:56:23;;;;;;;7.47;2.83;;;;;;;;;;5000327;28;20342;-67
2022/08/02 00:58:50;;;;;;;8.00;2.80;;;;;;;;;;5005011;28;20523;-66
2022/08/02 01:01:16;;;;;;;8.40;2.50;;;;;;;;;;5025143;28;20035;-65
2022/08/02 01:03:43;;;;;;;8.07;2.88;;;;;;;;;;5029167;28;20390;-66
2022/08/02 01:06:09;;;;;;;7.85;2.72;;;;;;;;;;5027207;28;20107;-66
2022/08/02 01:08:37;;;;;;;8.25;2.85;;;;;;;;;;5026753;28;20040;-66
2022/08/02 01:11:03;;;;;;;7.50;2.42;;;;;;;;;;5023082;28;20132;-66
2022/08/02 01:13:30;;;;;;;7.50;2.25;;;;;;;;;;5028369;28;20556;-66
2022/08/02 01:16:00;;;;;;;7.07;2.50;;;;;;;;;;5025881;28;20072;-66
2022/08/02 01:18:37;;;;;;;6.63;2.50;;;;;;;;;;5006234;28;20380;-65
2022/08/02 01:21:18;;;;;;;8.20;2.38;;;;;;;;;;5004473;28;20044;-66
2022/08/02 01:24:02;;;;;;;7.45;2.58;;;;;;;;;;5018739;28;20072;-66
2022/08/02 01:26:28;;;;;;;9.30;2.30;;;;;;;;;;5005107;28;20127;-66
2022/08/02 01:29:01;;;;;;;8.07;2.20;;;;;;;;;;5026780;28;20095;-66
2022/08/02 01:31:39;;;;;;;11.35;2.40;;;;;;;;;;5024431;28;20437;-66
2022/08/02 01:34:16;;;;;;;7.07;2.13;;;;;;;;;;5025890;28;20029;-66
2022/08/02 01:36:45;;;;;;;8.55;2.10;;;;;;;;;;5018915;28;20045;-66
2022/08/02 01:39:13;;;;;;;8.48;2.20;;;;;;;;;;5019275;28;20037;-66
2022/08/02 01:41:40;;;;;;;7.32;2.50;;;;;;;;;;5025693;28;20025;-65
2022/08/02 01:44:07;;;;;;;8.45;2.42;;;;;;;;;;5025115;28;20036;-65
2022/08/02 01:46:34;;;;;;;7.75;2.30;;;;;;;;;;5009262;28;20044;-65
2022/08/02 01:49:06;;;;;;;7.88;2.25;;;;;;;;;;5020971;28;20028;-65
2022/08/02 01:54:22;;;;;;;9.02;2.58;;;;;;;;;;5025727;28;20795;-66
2022/08/02 01:56:49;;;;;;;7.30;2.75;;;;;;;;;;5025724;28;20029;-66
2022/08/02 01:59:16;;;;;;;6.35;2.20;;;;;;;;;;5013385;28;20033;-66
2022/08/02 02:01:43;;;;;;;7.40;2.50;;;;;;;;;;5016667;28;20631;-67
2022/08/02 02:04:10;;;;;;;7.80;2.30;;;;;;;;;;5016892;28;20064;-66
2022/08/02 02:06:36;;;;;;;8.63;2.40;;;;;;;;;;5016822;28;20325;-67
2022/08/02 02:09:03;;;;;;;6.47;2.20;;;;;;;;;;5024754;28;20404;-66
2022/08/02 02:11:29;;;;;;;9.20;2.40;;;;;;;;;;5026336;28;20029;-66
2022/08/02 02:13:58;;;;;;;6.78;2.38;;;;;;;;;;5027706;28;20608;-66
2022/08/02 02:16:26;;;;;;;6.95;2.35;;;;;;;;;;5026227;28;20397;-65
2022/08/02 02:18:52;;;;;;;9.40;2.47;;;;;;;;;;5023180;28;20471;-65
2022/08/02 02:21:19;;;;;;;9.65;2.25;;;;;;;;;;5024472;28;20450;-65
2022/08/02 02:23:45;;;;;;;8.07;2.42;;;;;;;;;;5027853;28;20055;-65
2022/08/02 02:26:13;;;;;;;10.55;2.72;;;;;;;;;;5009468;28;20162;-65
2022/08/02 02:28:39;;;;;;;10.70;3.08;;;;;;;;;;5020126;28;20340;-66
2022/08/02 02:31:13;;;;;;;13.02;3.90;;;;;;;;;;5018552;28;20044;-65
2022/08/02 02:33:41;;;;;;;11.85;4.25;;;;;;;;;;4998747;28;20078;-65
2022/08/02 02:36:08;;;;;;;16.15;4.90;;;;;;;;;;5006493;28;20041;-65
2022/08/02 02:38:35;;;;;;;11.82;4.60;;;;;;;;;;5025655;28;20786;-65
2022/08/02 02:41:02;;;;;;;12.68;4.70;;;;;;;;;;5024415;28;20048;-64
2022/08/02 02:43:30;;;;;;;11.68;4.55;;;;;;;;;;5024924;28;20036;-67
2022/08/02 02:45:56;;;;;;;13.52;4.50;;;;;;;;;;5022791;28;20036;-65
2022/08/02 02:48:23;;;;;;;12.68;4.40;;;;;;;;;;5021593;28;20079;-65
2022/08/02 02:50:49;;;;;;;10.68;4.05;;;;;;;;;;5026834;28;20448;-67
2022/08/02 02:53:18;;;;;;;12.65;4.10;;;;;;;;;;5024258;28;20561;-65
2022/08/02 02:55:44;;;;;;;11.10;3.90;;;;;;;;;;5024459;28;20089;-66
2022/08/02 02:58:11;;;;;;;12.23;3.88;;;;;;;;;;5026725;28;20503;-65
2022/08/02 03:03:23;;;;;;;11.65;4.35;;;;;;;;;;5022903;28;20442;-66
2022/08/02 03:05:49;;;;;;;9.05;3.22;;;;;;;;;;5025420;28;20507;-66
2022/08/02 03:08:15;;;;;;;9.48;2.97;;;;;;;;;;5001180;28;20053;-66
2022/08/02 03:10:45;;;;;;;8.30;3.13;;;;;;;;;;5025660;28;20036;-69
2022/08/02 03:13:12;;;;;;;13.43;3.03;;;;;;;;;;5024515;28;20017;-66
2022/08/02 03:15:39;;;;;;;9.98;2.70;;;;;;;;;;5024959;28;20543;-66
2022/08/02 03:18:08;;;;;;;8.50;2.55;;;;;;;;;;5022854;28;20044;-65
2022/08/02 03:20:34;;;;;;;8.77;2.42;;;;;;;;;;5023628;28;20078;-65
2022/08/02 03:23:00;;;;;;;7.70;2.38;;;;;;;;;;5020792;28;20125;-65
2022/08/02 03:25:26;;;;;;;7.20;2.80;;;;;;;;;;5024047;28;20037;-66
2022/08/02 03:27:52;;;;;;;6.95;2.40;;;;;;;;;;5009845;28;20135;-66
2022/08/02 03:30:18;;;;;;;6.50;2.22;;;;;;;;;;5021893;28;20073;-66
2022/08/02 03:32:46;;;;;;;7.70;2.40;;;;;;;;;;5024895;28;20041;-65
2022/08/02 03:35:14;;;;;;;7.40;2.50;;;;;;;;;;5003496;28;20033;-65
2022/08/02 03:37:40;;;;;;;7.20;2.63;;;;;;;;;;5005963;28;20575;-65
2022/08/02 03:40:08;;;;;;;6.85;2.40;;;;;;;;;;5017460;28;20074;-65
2022/08/02 03:42:34;;;;;;;6.05;2.10;;;;;;;;;;5025597;28;20021;-67
2022/08/02 03:45:01;;;;;;;7.68;2.22;;;;;;;;;;5022804;28;20036;-66
2022/08/02 03:47:27;;;;;;;6.80;2.50;;;;;;;;;;5005552;28;20595;-66
2022/08/02 03:49:54;;;;;;;7.15;2.53;;;;;;;;;;5026395;28;20099;-65
2022/08/02 03:52:20;;;;;;;7.80;2.28;;;;;;;;;;5011170;28;20472;-65
2022/08/02 03:54:46;;;;;;;7.72;2.40;;;;;;;;;;5013856;28;20033;-65
2022/08/02 03:57:13;;;;;;;6.88;2.50;;;;;;;;;;5000951;28;20862;-65
2022/08/02 03:59:40;;;;;;;7.05;2.80;;;;;;;;;;5024997;28;20990;-66
2022/08/02 04:02:06;;;;;;;8.68;2.92;;;;;;;;;;5022079;28;20450;-65
2022/08/02 04:04:33;;;;;;;10.85;2.80;;;;;;;;;;5025767;28;20067;-66
2022/08/02 04:06:59;;;;;;;7.75;2.90;;;;;;;;;;5025887;28;20021;-65
2022/08/02 04:09:25;;;;;;;7.93;3.20;;;;;;;;;;5026096;28;20024;-65
2022/08/02 04:11:51;;;;;;;7.88;2.83;;;;;;;;;;5023838;28;20648;-66
2022/08/02 04:14:17;;;;;;;11.13;2.75;;;;;;;;;;5022081;28;20040;-66
2022/08/02 04:16:44;;;;;;;11.65;2.80;;;;;;;;;;5024616;28;20496;-66
2022/08/02 04:19:14;;;;;;;11.20;2.70;;;;;;;;;;5021246;28;20365;-66
2022/08/02 04:21:41;;;;;;;8.32;2.45;;;;;;;;;;5024724;28;20490;-66
2022/08/02 04:24:08;;;;;;;7.53;2.30;;;;;;;;;;5022505;28;20040;-66
2022/08/02 04:26:35;;;;;;;7.47;2.45;;;;;;;;;;5025881;28;20781;-66
2022/08/02 04:29:02;;;;;;;6.57;2.30;;;;;;;;;;5022218;28;20028;-66
2022/08/02 04:31:28;;;;;;;9.80;2.75;;;;;;;;;;5022369;28;20030;-66
2022/08/02 04:33:55;;;;;;;8.85;2.90;;;;;;;;;;5024326;28;20470;-66
2022/08/02 04:36:21;;;;;;;8.13;2.25;;;;;;;;;;5023509;28;20037;-66
2022/08/02 04:38:48;;;;;;;6.68;2.35;;;;;;;;;;4998880;28;20051;-66
2022/08/02 04:41:14;;;;;;;8.82;2.92;;;;;;;;;;5019721;28;20040;-66
2022/08/02 04:43:40;;;;;;;8.57;3.03;;;;;;;;;;5024801;28;20358;-66
2022/08/02 04:46:07;;;;;;;9.13;2.60;;;;;;;;;;5020834;28;20482;-66
2022/08/02 04:48:33;;;;;;;14.27;3.42;;;;;;;;;;5019457;28;20409;-66
2022/08/02 04:50:59;;;;;;;15.48;3.03;;;;;;;;;;5021162;28;20813;-66
2022/08/02 04:53:25;;;;;;;9.82;3.30;;;;;;;;;;5023323;28;20867;-66
2022/08/02 04:55:52;;;;;;;8.85;3.08;;;;;;;;;;5023346;28;20048;-66
2022/08/02 04:58:18;;;;;;;10.55;3.38;;;;;;;;;;5005524;28;20478;-66
2022/08/02 05:00:44;;;;;;;8.90;3.20;;;;;;;;;;5006022;28;20659;-66
2022/08/02 05:03:10;;;;;;;11.15;3.35;;;;;;;;;;5022770;28;20025;-66
2022/08/02 05:05:36;;;;;;;11.35;3.15;;;;;;;;;;5023948;28;20103;-66
2022/08/02 05:08:02;;;;;;;9.43;3.13;;;;;;;;;;5020292;28;20025;-66
2022/08/02 05:10:28;;;;;;;11.35;3.33;;;;;;;;;;5005960;28;20078;-66
2022/08/02 05:12:54;;;;;;;9.63;3.40;;;;;;;;;;5007658;28;20486;-66
2022/08/02 05:15:21;;;;;;;12.75;3.38;;;;;;;;;;5025096;28;20079;-65
2022/08/02 05:17:47;;;;;;;11.30;3.58;;;;;;;;;;5027388;28;20055;-67
2022/08/02 05:20:14;;;;;;;9.27;3.78;;;;;;;;;;5024809;28;20114;-66
2022/08/02 05:22:40;;;;;;;12.18;5.18;;;;;;;;;;5027353;28;20116;-66
2022/08/02 05:25:07;;;;;;;11.60;6.00;;;;;;;;;;5006842;28;20052;-65
2022/08/02 05:27:33;;;;;;;12.38;5.03;;;;;;;;;;5027038;28;20021;-65
2022/08/02 05:29:59;;;;;;;13.25;4.85;;;;;;;;;;5026652;28;20071;-65
2022/08/02 05:32:25;;;;;;;11.82;4.32;;;;;;;;;;5007888;28;20473;-65
2022/08/02 05:34:52;;;;;;;14.57;3.30;;;;;;;;;;5024419;28;20029;-65
2022/08/02 05:37:18;;;;;;;8.18;2.95;;;;;;;;;;5023966;28;20037;-66
2022/08/02 05:39:44;;;;;;;9.05;2.80;;;;;;;;;;5023376;28;20044;-66
2022/08/02 05:42:10;;;;;;;11.18;2.88;;;;;;;;;;5005117;28;20298;-65
2022/08/02 05:44:36;;;;;;;8.95;2.85;;;;;;;;;;5026833;28;20041;-65
2022/08/02 05:47:03;;;;;;;10.35;2.72;;;;;;;;;;5022990;28;20048;-65
2022/08/02 05:49:29;;;;;;;8.10;2.47;;;;;;;;;;5013934;28;20032;-65
2022/08/02 05:51:58;;;;;;;7.38;2.40;;;;;;;;;;5026057;28;20045;-65
2022/08/02 05:54:34;;;;;;;11.32;2.75;;;;;;;;;;5023424;28;20036;-65
2022/08/02 05:57:19;;;;;;;6.85;2.40;;;;;;;;;;5005080;28;20078;-66
2022/08/02 05:59:57;;;;;;;7.93;2.70;;;;;;;;;;5025212;28;20044;-67
2022/08/02 06:02:28;;;;;;;11.73;2.80;;;;;;;;;;5024486;28;20115;-67
2022/08/02 06:04:54;;;;;;;9.85;2.58;;;;;;;;;;5004054;28;20069;-67
2022/08/02 06:07:21;;;;;;;9.05;2.70;;;;;;;;;;5006128;28;20021;-66
2022/08/02 06:09:48;;;;;;;9.63;2.35;;;;;;;;;;5008888;28;20369;-67
2022/08/02 06:12:16;;;;;;;7.70;2.33;;;;;;;;;;5025223;28;20032;-66
2022/08/02 06:14:42;;;;;;;8.95;2.75;;;;;;;;;;5025068;28;20087;-67
2022/08/02 06:17:09;;;;;;;12.68;2.78;;;;;;;;;;5023263;28;20029;-66
2022/08/02 06:19:38;;;;;;;10.98;2.80;;;;;;;;;;5026867;28;20044;-67
2022/08/02 06:22:14;;;;;;;20.55;3.53;;;;;;;;;;5023415;28;20041;-66
2022/08/02 06:24:49;;;;;;;16.77;4.03;;;;;;;;;;5013838;28;20478;-67
2022/08/02 06:27:16;;;;;;;13.98;4.05;;;;;;;;;;5024140;28;20516;-66
2022/08/02 06:29:47;;;;;;;13.63;4.07;;;;;;;;;;5007751;28;20041;-67
2022/08/02 06:32:17;;;;;;;15.38;4.22;;;;;;;;;;5003094;28;20322;-67
2022/08/02 06:34:43;;;;;;;13.55;3.47;;;;;;;;;;5024577;28;20032;-66
2022/08/02 06:37:18;;;;;;;15.98;3.35;;;;;;;;;;5019610;28;20246;-67
2022/08/02 06:39:45;;;;;;;14.40;4.25;;;;;;;;;;5018832;28;20029;-66
2022/08/02 06:42:12;;;;;;;14.68;4.00;;;;;;;;;;5024144;28;20024;-66
2022/08/02 06:44:38;;;;;;;14.98;4.95;;;;;;;;;;5006769;28;20033;-66
2022/08/02 06:47:04;;;;;;;19.05;6.10;;;;;;;;;;5023798;28;20465;-66
2022/08/02 06:49:31;;;;;;;13.45;4.15;;;;;;;;;;5007276;28;20047;-67
2022/08/02 06:51:57;;;;;;;12.07;3.90;;;;;;;;;;5006795;28;20578;-65
2022/08/02 06:54:23;;;;;;;18.05;3.40;;;;;;;;;;5014208;28;20167;-66
2022/08/02 06:56:49;;;;;;;12.35;3.40;;;;;;;;;;5022016;28;20568;-66
2022/08/02 06:59:15;;;;;;;11.40;3.58;;;;;;;;;;5023692;28;20388;-66
2022/08/02 07:01:41;;;;;;;14.73;3.40;;;;;;;;;;5023931;28;20202;-66
2022/08/02 07:04:07;;;;;;;12.68;3.33;;;;;;;;;;5022778;28;20500;-66
2022/08/02 07:06:33;;;;;;;11.95;3.10;;;;;;;;;;5025955;28;21250;-66
2022/08/02 07:08:59;;;;;;;12.77;4.90;;;;;;;;;;5022902;28;20119;-66
2022/08/02 07:11:25;;;;;;;12.20;4.63;;;;;;;;;;5025761;28;20514;-66
2022/08/02 07:13:52;;;;;;;8.85;3.25;;;;;;;;;;5022230;28;20505;-66
2022/08/02 07:16:18;;;;;;;13.70;4.22;;;;;;;;;;5022544;28;20056;-67
2022/08/02 07:18:44;;;;;;;7.63;2.90;;;;;;;;;;5025077;28;20033;-66
2022/08/02 07:21:10;;;;;;;12.13;3.45;;;;;;;;;;5024499;28;20035;-66
2022/08/02 07:23:36;;;;;;;8.48;3.45;;;;;;;;;;5025543;28;20431;-66
2022/08/02 07:26:02;;;;;;;9.05;2.90;;;;;;;;;;5024614;28;20039;-66
2022/08/02 07:28:28;;;;;;;12.07;3.08;;;;;;;;;;5025882;28;20208;-66
2022/08/02 07:30:54;;;;;;;12.90;3.15;;;;;;;;;;5025741;28;20092;-66
2022/08/02 07:33:21;;;;;;;10.23;3.20;;;;;;;;;;5022475;28;20028;-66
2022/08/02 07:35:47;;;;;;;9.85;2.60;;;;;;;;;;5024947;28;20528;-65
2022/08/02 07:38:13;;;;;;;7.07;2.40;;;;;;;;;;5023199;28;20108;-65
2022/08/02 07:40:39;;;;;;;8.35;2.67;;;;;;;;;;5019435;28;20654;-67
2022/08/02 07:43:05;;;;;;;9.50;3.17;;;;;;;;;;5021036;28;20035;-66
2022/08/02 07:45:32;;;;;;;7.93;2.45;;;;;;;;;;5024196;28;20039;-66
2022/08/02 07:47:58;;;;;;;6.78;2.35;;;;;;;;;;5023150;28;20041;-65
2022/08/02 07:50:24;;;;;;;5.85;2.17;;;;;;;;;;5019460;28;20029;-66
2022/08/02 07:52:51;;;;;;;9.35;2.58;;;;;;;;;;5017678;28;20049;-66
2022/08/02 07:55:17;;;;;;;8.93;2.30;;;;;;;;;;5014807;28;20041;-66
2022/08/02 07:57:43;;;;;;;8.85;2.45;;;;;;;;;;5025192;28;20587;-66
2022/08/02 08:00:10;;;;;;;7.22;2.17;;;;;;;;;;5022464;28;20067;-66
2022/08/02 08:02:36;;;;;;;13.02;2.60;;;;;;;;;;5007684;28;20091;-67
2022/08/02 08:05:03;;;;;;;8.35;2.25;;;;;;;;;;5023992;28;20362;-65
2022/08/02 08:07:29;;;;;;;9.10;2.65;;;;;;;;;;5007090;28;20025;-66
2022/08/02 08:09:56;;;;;;;7.35;2.08;;;;;;;;;;5028419;28;20025;-65
2022/08/02 08:12:22;;;;;;;7.43;2.10;;;;;;;;;;5029179;28;20359;-66
2022/08/02 08:14:48;;;;;;;6.20;1.88;;;;;;;;;;5032851;28;20539;-65
2022/08/02 08:17:14;;;;;;;10.95;1.90;;;;;;;;;;5029112;28;20061;-65
2022/08/02 08:19:40;;;;;;;7.55;2.13;;;;;;;;;;5033191;28;20796;-65
2022/08/02 08:22:06;;;;;;;9.05;2.15;;;;;;;;;;5028255;28;20036;-65
2022/08/02 08:24:32;;;;;;;6.95;2.20;;;;;;;;;;5032176;28;20025;-66
2022/08/02 08:26:59;;;;;;;7.28;1.92;;;;;;;;;;5031289;28;20389;-65
2022/08/02 08:29:25;;;;;;;5.85;1.90;;;;;;;;;;5032360;28;20037;-65
2022/08/02 08:31:52;;;;;;;5.65;1.77;;;;;;;;;;5031327;28;20347;-65
2022/08/02 08:34:18;;;;;;;6.97;1.88;;;;;;;;;;5011746;28;20041;-66
2022/08/02 08:36:44;;;;;;;5.85;1.60;;;;;;;;;;5007003;28;20033;-66
2022/08/02 08:39:10;;;;;;;5.70;1.70;;;;;;;;;;5026810;28;20039;-64
2022/08/02 08:41:36;;;;;;;8.07;1.90;;;;;;;;;;5009195;28;20033;-64
2022/08/02 08:44:03;;;;;;;6.18;1.83;;;;;;;;;;5029717;28;20449;-64
2022/08/02 08:46:30;;;;;;;5.25;1.63;;;;;;;;;;5031062;28;20431;-64
2022/08/02 08:49:00;;;;;;;9.25;1.90;;;;;;;;;;5031955;28;20090;-63
2022/08/02 08:51:30;;;;;;;7.65;1.80;;;;;;;;;;5030327;28;20048;-65
2022/08/02 08:53:58;;;;;;;7.03;1.98;;;;;;;;;;5011165;28;20033;-64
2022/08/02 08:56:28;;;;;;;8.60;1.90;;;;;;;;;;5030843;28;20033;-64
2022/08/02 08:58:55;;;;;;;4.75;1.70;;;;;;;;;;5030249;28;20635;-64
2022/08/02 09:01:21;;;;;;;4.70;1.80;;;;;;;;;;5029523;28;20106;-65
2022/08/02 09:03:47;;;;;;;5.93;2.05;;;;;;;;;;5029701;28;20030;-64
2022/08/02 09:06:13;;;;;;;8.52;1.80;;;;;;;;;;5029122;28;20337;-63
2022/08/02 09:08:39;;;;;;;7.18;1.85;;;;;;;;;;5031306;28;20041;-64
2022/08/02 09:11:16;;;;;;;6.63;1.77;;;;;;;;;;5011308;28;20024;-64
2022/08/02 09:13:51;;;;;;;8.75;1.80;;;;;;;;;;5015620;28;20037;-64
2022/08/02 09:16:27;;;;;;;5.57;1.80;;;;;;;;;;5033060;28;20029;-64
2022/08/02 09:18:53;;;;;;;5.15;1.88;;;;;;;;;;5033297;28;20055;-64
2022/08/02 09:21:19;;;;;;;5.25;1.80;;;;;;;;;;5024857;28;20567;-65
2022/08/02 09:23:46;;;;;;;7.53;1.98;;;;;;;;;;5026984;28;20040;-64
2022/08/02 09:26:14;;;;;;;6.38;1.90;;;;;;;;;;5025598;28;20560;-62
2022/08/02 09:28:41;;;;;;;7.68;2.10;;;;;;;;;;5024206;28;20044;-65
2022/08/02 09:31:07;;;;;;;6.18;2.05;;;;;;;;;;5024197;28;20111;-62
2022/08/02 09:33:34;;;;;;;5.35;2.13;;;;;;;;;;5028152;28;20029;-63
2022/08/02 09:36:00;;;;;;;7.25;1.92;;;;;;;;;;5025931;28;20037;-63
2022/08/02 09:38:27;;;;;;;8.27;2.10;;;;;;;;;;5007333;28;20091;-64
2022/08/02 09:40:53;;;;;;;7.70;2.10;;;;;;;;;;5022884;28;20557;-62
2022/08/02 09:43:22;;;;;;;5.50;2.10;;;;;;;;;;5026523;28;20029;-62
2022/08/02 09:45:48;;;;;;;5.75;2.03;;;;;;;;;;5026506;28;20028;-62
2022/08/02 09:48:14;;;;;;;5.60;2.00;;;;;;;;;;5023351;28;20154;-61
2022/08/02 09:50:41;;;;;;;5.05;1.80;;;;;;;;;;5026127;28;20014;-62
2022/08/02 09:53:12;;;;;;;6.72;2.00;;;;;;;;;;5024588;28;20400;-62
2022/08/02 09:55:39;;;;;;;8.00;2.17;;;;;;;;;;5010857;28;20037;-62
2022/08/02 09:58:21;;;;;;;6.50;2.20;;;;;;;;;;5025776;28;20021;-62
2022/08/02 10:01:00;;;;;;;10.30;2.25;;;;;;;;;;5027118;28;20037;-62
2022/08/02 10:03:26;;;;;;;7.15;2.00;;;;;;;;;;5026934;28;20029;-63
2022/08/02 10:05:54;;;;;;;6.22;2.00;;;;;;;;;;5028297;28;20554;-62
2022/08/02 10:08:21;;;;;;;6.50;2.03;;;;;;;;;;5010104;28;20082;-62
2022/08/02 10:10:47;;;;;;;5.45;2.15;;;;;;;;;;5029189;28;20044;-62
2022/08/02 10:13:14;;;;;;;5.70;2.00;;;;;;;;;;5027978;28;20036;-62
2022/08/02 10:15:41;;;;;;;6.40;1.90;;;;;;;;;;5028677;28;20483;-62
2022/08/02 10:18:07;;;;;;;8.35;1.90;;;;;;;;;;5007855;28;20037;-62
2022/08/02 10:20:40;;;;;;;9.65;2.50;;;;;;;;;;5014175;28;20071;-62
2022/08/02 10:23:08;;;;;;;5.93;2.00;;;;;;;;;;5026008;28;20040;-62
2022/08/02 10:25:36;;;;;;;5.53;1.90;;;;;;;;;;5028350;28;20025;-61
2022/08/02 10:28:02;;;;;;;6.22;1.90;;;;;;;;;;5026697;28;20041;-61
2022/08/02 10:30:29;;;;;;;6.95;2.00;;;;;;;;;;5027015;28;20054;-64
2022/08/02 10:32:57;;;;;;;5.90;1.85;;;;;;;;;;5027280;28;20481;-64
2022/08/02 10:35:24;;;;;;;6.60;2.08;;;;;;;;;;5026574;28;20033;-63
2022/08/02 10:37:52;;;;;;;8.27;2.33;;;;;;;;;;5027472;28;20441;-63
2022/08/02 10:40:27;;;;;;;6.68;2.22;;;;;;;;;;5023960;28;20048;-64
2022/08/02 10:42:58;;;;;;;8.68;2.35;;;;;;;;;;5024669;28;20518;-62
2022/08/02 10:45:24;;;;;;;8.55;2.30;;;;;;;;;;5023830;28;20538;-64
2022/08/02 10:48:02;;;;;;;7.63;1.80;;;;;;;;;;5007229;28;20032;-61
2022/08/02 10:50:51;;;;;;;5.78;1.88;;;;;;;;;;5025233;28;20218;-61
2022/08/02 10:53:23;;;;;;;6.90;2.13;;;;;;;;;;5011793;28;20843;-62
2022/08/02 10:55:50;;;;;;;6.70;2.17;;;;;;;;;;5023962;28;20400;-61
2022/08/02 10:58:18;;;;;;;7.47;2.15;;;;;;;;;;5023620;28;20041;-62
2022/08/02 11:00:44;;;;;;;6.93;1.95;;;;;;;;;;5007207;28;20384;-62
2022/08/02 11:03:33;;;;;;;8.20;2.20;;;;;;;;;;5024280;28;20532;-62
2022/08/02 11:06:03;;;;;;;6.95;2.08;;;;;;;;;;5025847;28;20041;-62
2022/08/02 11:08:29;;;;;;;7.05;2.17;;;;;;;;;;5025181;28;20045;-67
2022/08/02 11:11:14;;;;;;;6.53;2.00;;;;;;;;;;5024822;28;20025;-68
2022/08/02 11:14:01;;;;;;;6.43;2.10;;;;;;;;;;5023922;28;20103;-67
2022/08/02 11:16:50;;;;;;;5.93;1.80;;;;;;;;;;5019131;28;20974;-67
2022/08/02 11:19:16;;;;;;;5.75;2.17;;;;;;;;;;5011367;28;20049;-66
2022/08/02 11:21:59;;;;;;;5.25;2.08;;;;;;;;;;5025731;28;20029;-66
2022/08/02 11:24:27;;;;;;;9.48;2.33;;;;;;;;;;5007235;28;20127;-68
2022/08/02 11:26:54;;;;;;;5.78;2.00;;;;;;;;;;5022725;28;20043;-69
2022/08/02 11:29:20;;;;;;;7.55;2.30;;;;;;;;;;5015408;28;20110;-68
2022/08/02 11:31:46;;;;;;;7.00;2.50;;;;;;;;;;5020627;28;20238;-67
2022/08/02 11:34:13;;;;;;;6.43;2.33;;;;;;;;;;5018174;28;20048;-67
2022/08/02 11:36:46;;;;;;;9.88;2.67;;;;;;;;;;5027078;28;20040;-67
2022/08/02 11:39:13;;;;;;;6.53;2.00;;;;;;;;;;5020731;28;20336;-66
2022/08/02 11:41:39;;;;;;;6.55;2.40;;;;;;;;;;5022320;28;20083;-67
2022/08/02 11:44:05;;;;;;;10.02;2.40;;;;;;;;;;5021327;28;20025;-67
2022/08/02 11:46:31;;;;;;;8.57;2.10;;;;;;;;;;5024434;28;20040;-68
2022/08/02 11:48:57;;;;;;;9.02;2.30;;;;;;;;;;5017927;28;20028;-68
2022/08/02 11:51:23;;;;;;;6.85;1.95;;;;;;;;;;5021364;28;20029;-68
2022/08/02 11:53:51;;;;;;;8.55;2.30;;;;;;;;;;5024090;28;20548;-67
2022/08/02 11:56:18;;;;;;;6.72;2.10;;;;;;;;;;5020643;28;20033;-68
2022/08/02 11:59:02;;;;;;;6.20;2.08;;;;;;;;;;5022707;28;20079;-67
2022/08/02 12:01:30;;;;;;;5.72;1.92;;;;;;;;;;5007987;28;20538;-68
2022/08/02 12:03:59;;;;;;;6.38;1.65;;;;;;;;;;5023454;28;20093;-68
2022/08/02 12:06:27;;;;;;;7.53;1.75;;;;;;;;;;5022415;28;20548;-66
2022/08/02 12:08:58;;;;;;;9.35;2.00;;;;;;;;;;5001269;28;20033;-67
2022/08/02 12:11:24;;;;;;;5.88;1.88;;;;;;;;;;5003678;28;20095;-66
2022/08/02 12:13:50;;;;;;;6.40;1.70;;;;;;;;;;5023194;28;20463;-68
2022/08/02 12:19:22;;;;;;;7.80;1.80;;;;;;;;;;5015612;28;20785;-67
2022/08/02 12:21:48;;;;;;;5.90;1.80;;;;;;;;;;5018741;28;20471;-67
2022/08/02 12:24:26;;;;;;;5.35;1.70;;;;;;;;;;5015361;28;20325;-67
2022/08/02 12:26:53;;;;;;;5.00;1.80;;;;;;;;;;5023647;28;20040;-69
2022/08/02 12:29:28;;;;;;;7.57;1.77;;;;;;;;;;5002237;28;20028;-67
2022/08/02 12:31:54;;;;;;;6.65;1.80;;;;;;;;;;5002635;28;20037;-67
2022/08/02 12:34:22;;;;;;;6.97;1.98;;;;;;;;;;5003931;28;20582;-67
2022/08/02 12:37:03;;;;;;;7.18;1.98;;;;;;;;;;5023573;28;20107;-67
2022/08/02 12:39:39;;;;;;;6.25;1.75;;;;;;;;;;5021300;28;20605;-66
2022/08/02 12:42:06;;;;;;;6.72;1.90;;;;;;;;;;5021507;28;20216;-67
2022/08/02 12:44:32;;;;;;;7.15;1.90;;;;;;;;;;5023404;28;20587;-66
2022/08/02 12:47:03;;;;;;;6.22;1.90;;;;;;;;;;5021384;28;20569;-68
2022/08/02 12:49:29;;;;;;;6.22;1.98;;;;;;;;;;5021110;28;20453;-66
2022/08/02 12:51:55;;;;;;;6.63;1.80;;;;;;;;;;5021245;28;20067;-67
2022/08/02 12:54:22;;;;;;;6.90;2.30;;;;;;;;;;5018813;28;20061;-67
2022/08/02 12:56:49;;;;;;;7.57;2.30;;;;;;;;;;5026332;28;20464;-68
2022/08/02 12:59:16;;;;;;;5.47;2.00;;;;;;;;;;5027794;28;20171;-68
2022/08/02 13:01:44;;;;;;;9.32;2.40;;;;;;;;;;5029465;28;20156;-66
2022/08/02 13:04:10;;;;;;;5.85;1.83;;;;;;;;;;5028182;28;20028;-67
2022/08/02 13:06:36;;;;;;;4.57;1.60;;;;;;;;;;5031426;28;20409;-66
2022/08/02 13:09:03;;;;;;;5.45;1.70;;;;;;;;;;5008714;28;20044;-66
2022/08/02 13:11:29;;;;;;;8.60;1.80;;;;;;;;;;5012599;28;20143;-66
2022/08/02 13:13:56;;;;;;;5.97;1.90;;;;;;;;;;5011419;28;20043;-66
2022/08/02 13:16:23;;;;;;;5.97;1.85;;;;;;;;;;5027127;28;20044;-67
2022/08/02 13:18:49;;;;;;;7.03;1.70;;;;;;;;;;5022632;28;20167;-67
2022/08/02 13:21:15;;;;;;;7.03;1.90;;;;;;;;;;5009274;28;20041;-67
2022/08/02 13:23:41;;;;;;;6.38;1.70;;;;;;;;;;5026759;28;20470;-66
2022/08/02 13:26:07;;;;;;;5.20;1.70;;;;;;;;;;5025259;28;20135;-67
2022/08/02 13:28:34;;;;;;;4.75;1.60;;;;;;;;;;5021844;28;20162;-68
2022/08/02 13:31:00;;;;;;;6.82;1.95;;;;;;;;;;5008779;28;20043;-66
2022/08/02 13:33:26;;;;;;;5.38;1.70;;;;;;;;;;5028533;28;20500;-66
2022/08/02 13:35:52;;;;;;;6.65;1.70;;;;;;;;;;5026280;28;20021;-67
2022/08/02 13:38:18;;;;;;;6.45;1.60;;;;;;;;;;5025984;28;20029;-67
2022/08/02 13:43:29;;;;;;;8.13;2.05;;;;;;;;;;5023294;28;20126;-67
2022/08/02 13:45:55;;;;;;;5.57;1.70;;;;;;;;;;5024169;28;20059;-67
2022/08/02 13:48:21;;;;;;;4.20;1.52;;;;;;;;;;5020644;28;20031;-68
2022/08/02 13:50:47;;;;;;;5.43;1.63;;;;;;;;;;5009666;28;20456;-66
2022/08/02 13:53:13;;;;;;;5.50;1.70;;;;;;;;;;5025547;28;20048;-67
2022/08/02 13:55:39;;;;;;;6.90;1.77;;;;;;;;;;5028521;28;20068;-66
2022/08/02 13:58:05;;;;;;;9.43;1.73;;;;;;;;;;5011201;28;20025;-67
2022/08/02 14:00:32;;;;;;;5.95;1.70;;;;;;;;;;5023349;28;20041;-68
2022/08/02 14:02:58;;;;;;;6.10;1.70;;;;;;;;;;5014850;28;20021;-69
2022/08/02 14:05:29;;;;;;;5.50;1.65;;;;;;;;;;5025782;28;20619;-70
2022/08/02 14:07:58;;;;;;;5.80;1.67;;;;;;;;;;5012221;28;20110;-69
2022/08/02 14:10:25;;;;;;;4.53;1.48;;;;;;;;;;5027075;28;20039;-67
2022/08/02 14:12:51;;;;;;;6.05;1.63;;;;;;;;;;5013020;28;20032;-68
2022/08/02 14:15:18;;;;;;;6.57;1.45;;;;;;;;;;5025036;28;20044;-68
2022/08/02 14:17:44;;;;;;;4.88;1.65;;;;;;;;;;5010015;28;20098;-67
2022/08/02 14:20:11;;;;;;;5.05;1.40;;;;;;;;;;5029137;28;20115;-68
2022/08/02 14:22:37;;;;;;;5.65;1.65;;;;;;;;;;5027364;28;20472;-68
2022/08/02 14:25:03;;;;;;;7.10;1.70;;;;;;;;;;5025317;28;20057;-68
2022/08/02 14:27:32;;;;;;;6.22;1.50;;;;;;;;;;5007995;28;20021;-68
2022/08/02 14:29:58;;;;;;;5.72;1.70;;;;;;;;;;5027754;28;20044;-69
2022/08/02 14:32:25;;;;;;;6.25;1.67;;;;;;;;;;5025751;28;20032;-69
2022/08/02 14:34:51;;;;;;;4.78;1.40;;;;;;;;;;5027062;28;20586;-69
2022/08/02 14:37:17;;;;;;;3.05;1.10;;;;;;;;;;5024493;28;20041;-67
2022/08/02 14:39:43;;;;;;;6.60;1.40;;;;;;;;;;5002194;28;20150;-68
2022/08/02 14:42:10;;;;;;;4.32;1.13;;;;;;;;;;5005411;28;20465;-69
2022/08/02 14:44:36;;;;;;;5.57;1.27;;;;;;;;;;5027042;28;20444;-69
2022/08/02 14:47:02;;;;;;;4.82;1.30;;;;;;;;;;5026693;28;20033;-69
2022/08/02 14:49:28;;;;;;;5.30;1.25;;;;;;;;;;5027569;28;20681;-67
2022/08/02 14:51:54;;;;;;;6.50;1.33;;;;;;;;;;5021752;28;20375;-69
2022/08/02 14:54:21;;;;;;;6.57;1.15;;;;;;;;;;5014958;28;20148;-66